Time;durP1;ratioP1;P1;durP2;ratioP2;P2;SDS_P1;SDS_P2;PMS_P1;PMS_P2;Temp;Humidity;BMP_temperature;BMP_pressure;BME280_temperature;BME280_humidity;BME280_pressure;Samples;Min_cycle;Max_cycle;Signal;HPM_P1;HPM_P2
2023/10/04 00:00:21;;;;;;;8.07;2.55;;;;;;;19.75;51.24;99930.69;4383225;32;33977;-68
2023/10/04 00:02:54;;;;;;;7.65;2.58;;;;;;;19.79;51.33;99934.75;4383656;32;33453;-67
2023/10/04 00:05:23;;;;;;;7.15;2.20;;;;;;;19.89;50.96;99930.00;4383707;32;33616;-67
2023/10/04 00:07:52;;;;;;;5.70;2.92;;;;;;;19.91;51.00;99927.13;4384768;32;33763;-68
2023/10/04 00:10:23;;;;;;;12.27;2.83;;;;;;;19.98;50.71;99925.41;4383856;32;33598;-68
2023/10/04 00:12:52;;;;;;;4.30;1.87;;;;;;;19.99;50.54;99927.09;4385047;32;32094;-67
2023/10/04 00:15:22;;;;;;;7.15;3.15;;;;;;;19.97;50.77;99930.00;4377414;32;35769;-68
2023/10/04 00:17:52;;;;;;;8.43;2.10;;;;;;;20.01;50.87;99927.78;4378333;32;33946;-68
2023/10/04 00:20:21;;;;;;;9.68;2.97;;;;;;;20.01;50.93;99934.06;4379862;32;35372;-67
2023/10/04 00:22:49;;;;;;;5.47;2.72;;;;;;;19.93;51.06;99935.94;4376098;32;34185;-67
2023/10/04 00:25:23;;;;;;;9.20;2.28;;;;;;;19.97;50.94;99937.31;4383371;32;32494;-67
2023/10/04 00:27:56;;;;;;;11.75;3.80;;;;;;;19.90;51.21;99930.84;4380748;32;34135;-67
2023/10/04 00:30:29;;;;;;;10.05;3.20;;;;;;;19.85;51.38;99938.69;4389247;32;33832;-67
2023/10/04 00:32:59;;;;;;;7.80;3.00;;;;;;;19.98;51.20;99933.56;4390639;32;33415;-66
2023/10/04 00:35:27;;;;;;;8.50;2.85;;;;;;;19.66;51.95;99943.41;4381337;32;33720;-67
2023/10/04 00:37:59;;;;;;;5.40;2.87;;;;;;;19.71;51.85;99943.75;4388534;32;34301;-67
2023/10/04 00:40:29;;;;;;;5.12;2.78;;;;;;;19.69;52.00;99950.38;4382466;32;33239;-66
2023/10/04 00:42:59;;;;;;;8.27;3.00;;;;;;;19.78;51.72;99961.06;4383553;32;33686;-67
2023/10/04 00:45:28;;;;;;;5.80;2.87;;;;;;;19.66;51.99;99962.41;4383317;32;33662;-67
2023/10/04 00:47:59;;;;;;;6.68;2.85;;;;;;;19.72;51.85;99953.59;4376167;32;33792;-67
2023/10/04 00:50:31;;;;;;;4.57;2.08;;;;;;;19.66;52.17;99964.28;4370892;32;34648;-67
2023/10/04 00:53:08;;;;;;;7.72;2.25;;;;;;;19.54;52.31;99958.28;4370828;32;33214;-67
2023/10/04 00:55:40;;;;;;;4.60;2.05;;;;;;;19.61;52.12;99970.16;4384020;32;34477;-67
2023/10/04 00:58:10;;;;;;;4.00;1.58;;;;;;;19.74;51.88;99967.00;4378900;32;35277;-67
2023/10/04 01:00:45;;;;;;;6.15;2.15;;;;;;;19.77;51.96;99966.66;4379008;32;34871;-67
2023/10/04 01:03:15;;;;;;;11.73;3.00;;;;;;;19.79;51.90;99961.91;4383803;32;34629;-67
2023/10/04 01:05:47;;;;;;;6.05;3.08;;;;;;;19.74;51.95;99967.88;4379602;32;34611;-67
2023/10/04 01:08:16;;;;;;;4.53;2.03;;;;;;;19.68;52.30;99960.41;4367486;32;34211;-67
2023/10/04 01:10:46;;;;;;;12.63;1.77;;;;;;;19.78;52.20;99957.50;4377889;32;34886;-67
2023/10/04 01:13:17;;;;;;;5.28;2.60;;;;;;;19.85;52.08;99957.69;4383877;32;34318;-67
2023/10/04 01:15:46;;;;;;;5.37;3.17;;;;;;;19.92;51.96;99956.81;4383187;32;33919;-68
2023/10/04 01:18:15;;;;;;;12.27;2.55;;;;;;;19.86;52.27;99957.50;4384125;32;33858;-68
2023/10/04 01:20:45;;;;;;;10.25;3.78;;;;;;;19.97;51.92;99959.06;4378030;32;33842;-68
2023/10/04 01:23:14;;;;;;;13.95;5.93;;;;;;;20.00;51.90;99956.84;4382125;32;34198;-68
2023/10/04 01:25:44;;;;;;;5.07;2.85;;;;;;;19.99;52.09;99968.69;4378130;32;34138;-68
2023/10/04 01:28:14;;;;;;;3.80;2.12;;;;;;;20.07;52.06;99973.31;4388752;32;33710;-68
2023/10/04 01:30:43;;;;;;;7.43;3.10;;;;;;;20.10;51.71;99967.53;4384494;32;33667;-68
2023/10/04 01:33:18;;;;;;;7.07;3.03;;;;;;;20.08;51.58;99969.56;4384554;32;33060;-69
2023/10/04 01:35:50;;;;;;;6.72;3.15;;;;;;;20.03;51.84;99963.78;4384600;32;33879;-68
2023/10/04 01:38:18;;;;;;;7.43;3.20;;;;;;;20.01;51.83;99971.25;4384428;32;34142;-69
2023/10/04 01:40:47;;;;;;;5.30;2.97;;;;;;;19.99;51.97;99976.00;4380427;32;32274;-68
2023/10/04 01:43:15;;;;;;;7.40;3.08;;;;;;;20.05;51.91;99977.22;4389891;32;34241;-69
2023/10/04 01:45:58;;;;;;;6.82;3.37;;;;;;;20.01;52.18;99973.97;4381600;32;35033;-69
2023/10/04 01:48:34;;;;;;;6.37;2.95;;;;;;;20.03;52.47;99980.06;4381096;32;33974;-69
2023/10/04 01:51:03;;;;;;;6.15;3.50;;;;;;;20.05;52.89;99972.63;4382516;32;33873;-69
2023/10/04 01:53:34;;;;;;;7.18;3.00;;;;;;;20.03;53.60;99980.06;4381855;32;36090;-69
2023/10/04 01:56:03;;;;;;;18.23;2.95;;;;;;;20.00;54.41;99996.75;4377406;32;34343;-69
2023/10/04 01:58:31;;;;;;;5.93;3.12;;;;;;;19.84;55.68;99994.00;4381480;32;33852;-69
2023/10/04 02:01:01;;;;;;;5.10;2.35;;;;;;;19.86;56.29;100000.13;4387370;32;33599;-69
2023/10/04 02:03:30;;;;;;;5.82;3.33;;;;;;;20.04;56.05;100000.81;4397784;32;34072;-69
2023/10/04 02:05:57;;;;;;;7.28;4.12;;;;;;;19.48;58.31;100013.25;4384025;32;33630;-69
2023/10/04 02:08:26;;;;;;;8.82;3.95;;;;;;;19.05;59.64;100004.28;4382131;32;35911;-68
2023/10/04 02:10:54;;;;;;;5.40;2.75;;;;;;;19.05;59.83;100009.72;4381919;32;34901;-68
2023/10/04 02:13:25;;;;;;;5.80;2.10;;;;;;;19.32;58.94;100014.03;4387961;32;33495;-68
2023/10/04 02:15:54;;;;;;;5.78;2.35;;;;;;;18.96;59.44;100007.97;4387769;32;34025;-68
2023/10/04 02:18:22;;;;;;;5.05;1.90;;;;;;;19.00;59.28;100007.47;4380882;32;33865;-68
2023/10/04 02:20:53;;;;;;;12.07;3.20;;;;;;;19.16;58.17;100000.41;4377753;32;34798;-69
2023/10/04 02:23:21;;;;;;;4.80;1.77;;;;;;;18.66;59.22;100012.88;4378325;32;33244;-68
2023/10/04 02:25:48;;;;;;;4.72;1.87;;;;;;;18.89;58.70;100021.34;4380004;32;34991;-68
2023/10/04 02:28:22;;;;;;;2.80;1.62;;;;;;;18.83;58.64;100020.09;4378744;32;34253;-67
2023/10/04 02:30:55;;;;;;;4.32;2.05;;;;;;;18.96;58.61;100024.25;4380178;32;33988;-67
2023/10/04 02:33:32;;;;;;;6.47;2.70;;;;;;;18.88;59.03;100018.78;4393647;32;33429;-68
2023/10/04 02:36:00;;;;;;;14.95;2.15;;;;;;;19.11;58.43;100027.22;4380886;32;33941;-69
2023/10/04 02:38:32;;;;;;;3.40;1.87;;;;;;;19.30;57.95;100029.66;4384765;32;33909;-68
2023/10/04 02:41:00;;;;;;;3.72;1.48;;;;;;;19.28;58.20;100045.25;4385737;32;35043;-69
2023/10/04 02:43:28;;;;;;;8.10;2.95;;;;;;;19.07;59.04;100042.97;4383371;32;33182;-68
2023/10/04 02:45:57;;;;;;;4.45;1.70;;;;;;;19.38;58.19;100056.81;4382175;32;34141;-68
2023/10/04 02:48:25;;;;;;;3.58;1.83;;;;;;;19.54;57.98;100062.31;4386773;32;33761;-69
2023/10/04 02:50:52;;;;;;;2.08;1.10;;;;;;;19.43;57.87;100065.34;4381755;32;34684;-71
2023/10/04 02:53:20;;;;;;;6.90;2.50;;;;;;;19.23;58.72;100059.31;4385149;32;35200;-71
2023/10/04 02:55:53;;;;;;;11.90;3.22;;;;;;;19.53;57.89;100074.19;4384630;32;34876;-71
2023/10/04 02:58:22;;;;;;;3.83;2.00;;;;;;;19.29;58.89;100069.53;4381031;32;35072;-71
2023/10/04 03:00:50;;;;;;;4.80;1.62;;;;;;;19.49;57.88;100072.81;4391108;32;33300;-70
2023/10/04 03:03:24;;;;;;;3.30;1.87;;;;;;;18.92;59.19;100072.53;4376801;32;32115;-69
2023/10/04 03:05:54;;;;;;;7.43;1.58;;;;;;;19.25;58.16;100073.56;4369147;32;35547;-70
2023/10/04 03:08:27;;;;;;;8.20;1.27;;;;;;;19.24;57.73;100073.72;4377080;32;34036;-69
2023/10/04 03:10:55;;;;;;;6.93;1.30;;;;;;;19.12;58.31;100085.88;4382386;32;33487;-73
2023/10/04 03:13:27;;;;;;;2.20;1.15;;;;;;;19.15;57.96;100089.13;4374646;32;33525;-73
2023/10/04 03:15:55;;;;;;;9.88;1.15;;;;;;;19.52;57.10;100099.62;4368130;32;33953;-74
2023/10/04 03:18:25;;;;;;;2.20;0.90;;;;;;;19.12;57.97;100097.56;4367706;32;35078;-74
2023/10/04 03:21:10;;;;;;;4.22;1.48;;;;;;;19.25;57.90;100106.13;4374381;32;34573;-75
2023/10/04 03:23:41;;;;;;;2.53;1.02;;;;;;;19.61;57.03;100100.50;4367454;32;33544;-77
2023/10/04 03:26:12;;;;;;;5.60;2.03;;;;;;;19.30;57.31;100105.66;4376717;32;35175;-74
2023/10/04 03:28:41;;;;;;;1.55;0.40;;;;;;;19.09;57.98;100109.59;4362731;32;33946;-73
2023/10/04 03:31:14;;;;;;;1.20;0.68;;;;;;;19.15;57.75;100116.25;4365806;32;35007;-73
2023/10/04 03:33:44;;;;;;;1.45;1.00;;;;;;;18.98;58.27;100109.03;4372407;32;33019;-73
2023/10/04 03:36:17;;;;;;;3.30;0.80;;;;;;;19.05;57.99;100116.34;4373963;32;33466;-74
2023/10/04 03:38:49;;;;;;;2.90;0.90;;;;;;;19.06;58.15;100119.91;4363787;32;33853;-75
2023/10/04 03:41:18;;;;;;;1.60;0.85;;;;;;;18.91;58.49;100122.37;4371942;32;33587;-75
2023/10/04 03:43:47;;;;;;;0.82;0.47;;;;;;;18.79;58.49;100113.66;4374495;32;33527;-75
2023/10/04 03:46:21;;;;;;;1.23;0.73;;;;;;;18.95;58.29;100123.75;4375985;32;33471;-74
2023/10/04 03:48:49;;;;;;;1.60;0.77;;;;;;;18.92;57.80;100121.38;4366632;32;34379;-74
2023/10/04 03:51:21;;;;;;;3.70;1.65;;;;;;;18.77;58.10;100121.06;4362205;32;33744;-74
2023/10/04 03:53:50;;;;;;;3.12;0.85;;;;;;;18.74;58.13;100134.94;4366246;32;34118;-74
2023/10/04 03:56:21;;;;;;;3.05;0.85;;;;;;;18.54;58.50;100134.25;4376529;32;33674;-75
2023/10/04 03:58:48;;;;;;;11.73;1.20;;;;;;;19.09;56.92;100142.16;4374993;32;34864;-75
2023/10/04 04:01:17;;;;;;;3.80;1.62;;;;;;;18.83;57.02;100138.59;4368382;32;33533;-72
2023/10/04 04:03:45;;;;;;;4.57;0.98;;;;;;;19.11;56.63;100147.44;4382106;32;33703;-71
2023/10/04 04:06:13;;;;;;;2.12;0.95;;;;;;;18.97;56.15;100150.72;4387018;32;33572;-72
2023/10/04 04:08:42;;;;;;;4.80;1.45;;;;;;;18.98;56.20;100174.12;4389265;32;33881;-72
2023/10/04 04:11:10;;;;;;;0.47;0.35;;;;;;;19.01;55.83;100168.41;4389401;32;33433;-71
2023/10/04 04:13:38;;;;;;;0.98;0.52;;;;;;;19.43;54.67;100178.50;4386211;32;33242;-72
2023/10/04 04:16:09;;;;;;;7.80;2.00;;;;;;;19.35;54.09;100173.00;4384440;32;33673;-72
2023/10/04 04:18:38;;;;;;;2.25;1.30;;;;;;;19.12;54.58;100164.56;4387007;32;34975;-72
2023/10/04 04:21:06;;;;;;;2.97;1.48;;;;;;;19.39;54.17;100172.53;4378340;32;34784;-72
2023/10/04 04:23:34;;;;;;;7.62;1.12;;;;;;;18.90;55.23;100180.31;4380805;32;33252;-73
2023/10/04 04:26:06;;;;;;;4.20;1.42;;;;;;;18.96;54.99;100179.69;4386489;32;33556;-74
2023/10/04 04:28:37;;;;;;;1.55;0.68;;;;;;;19.09;55.46;100171.16;4387843;32;33886;-73
2023/10/04 04:31:14;;;;;;;5.28;0.65;;;;;;;19.37;54.37;100181.84;4386461;32;33280;-72
2023/10/04 04:33:43;;;;;;;0.55;0.20;;;;;;;19.00;55.21;100182.94;4387086;32;32962;-77
2023/10/04 04:36:20;;;;;;;1.83;1.30;;;;;;;19.13;54.91;100179.81;4382367;32;34689;-74
2023/10/04 04:38:48;;;;;;;8.88;1.15;;;;;;;19.14;54.41;100195.94;4381384;32;34821;-76
2023/10/04 04:41:21;;;;;;;2.25;0.65;;;;;;;19.27;54.26;100201.78;4386069;32;33815;-76
2023/10/04 04:43:49;;;;;;;1.45;0.73;;;;;;;18.81;55.10;100211.97;4377571;32;33050;-77
2023/10/04 04:46:18;;;;;;;1.40;0.88;;;;;;;19.00;54.58;100220.91;4386031;32;34741;-76
2023/10/04 04:48:47;;;;;;;1.85;0.82;;;;;;;18.81;55.64;100222.81;4384126;32;34879;-75
2023/10/04 04:51:15;;;;;;;3.85;1.48;;;;;;;19.22;54.44;100219.56;4389206;32;33586;-75
2023/10/04 04:53:44;;;;;;;2.35;0.88;;;;;;;19.24;54.12;100222.97;4378342;32;31936;-73
2023/10/04 04:56:12;;;;;;;1.67;0.80;;;;;;;19.10;54.65;100227.13;4375901;32;34460;-72
2023/10/04 04:58:44;;;;;;;1.73;0.73;;;;;;;18.84;55.20;100225.22;4380117;32;33868;-72
2023/10/04 05:01:12;;;;;;;1.08;0.70;;;;;;;18.72;55.52;100231.00;4381979;32;33680;-73
2023/10/04 05:03:45;;;;;;;3.12;0.70;;;;;;;18.77;55.34;100234.97;4371752;32;33944;-72
2023/10/04 05:06:20;;;;;;;2.50;1.00;;;;;;;18.92;54.68;100235.28;4368145;32;33749;-77
2023/10/04 05:08:54;;;;;;;4.97;1.58;;;;;;;18.65;55.51;100238.03;4369734;32;33989;-76
2023/10/04 05:11:26;;;;;;;2.90;1.50;;;;;;;19.03;54.74;100247.72;4371822;32;33916;-75
2023/10/04 05:13:57;;;;;;;0.75;0.52;;;;;;;18.69;55.47;100264.69;4367867;32;33397;-76
2023/10/04 05:16:27;;;;;;;4.37;1.40;;;;;;;19.19;54.02;100258.72;4374298;32;34264;-73
2023/10/04 05:18:55;;;;;;;15.18;1.83;;;;;;;18.90;54.62;100255.41;4362648;32;33419;-72
2023/10/04 05:21:22;;;;;;;6.20;1.37;;;;;;;18.38;55.67;100261.47;4373366;32;32263;-74
2023/10/04 05:23:55;;;;;;;1.33;0.70;;;;;;;18.24;56.03;100254.75;4362126;32;33484;-74
2023/10/04 05:26:22;;;;;;;2.55;1.08;;;;;;;18.43;55.52;100261.03;4371138;32;33765;-73
2023/10/04 05:28:52;;;;;;;2.42;1.30;;;;;;;18.30;55.91;100272.25;4367211;32;34108;-72
2023/10/04 05:31:20;;;;;;;3.03;1.25;;;;;;;18.51;55.41;100271.97;4361957;32;33861;-72
2023/10/04 05:33:47;;;;;;;2.40;1.02;;;;;;;18.88;54.41;100274.59;4364668;32;34683;-72
2023/10/04 05:36:17;;;;;;;5.35;1.73;;;;;;;18.49;55.19;100282.09;4376841;32;34742;-70
2023/10/04 05:38:45;;;;;;;1.60;0.85;;;;;;;18.46;55.02;100291.41;4361302;32;34036;-69
2023/10/04 05:41:12;;;;;;;3.55;1.45;;;;;;;18.83;53.50;100296.72;4366781;32;33721;-71
2023/10/04 05:43:40;;;;;;;4.47;1.30;;;;;;;18.89;53.24;100308.81;4366808;32;33524;-72
2023/10/04 05:46:08;;;;;;;2.85;0.73;;;;;;;18.86;52.61;100319.97;4363434;32;34679;-72
2023/10/04 05:48:35;;;;;;;1.73;0.82;;;;;;;18.67;52.52;100331.78;4374845;32;35084;-73
2023/10/04 05:51:06;;;;;;;2.72;1.00;;;;;;;18.52;51.32;100319.72;4375161;32;33735;-72
2023/10/04 05:53:35;;;;;;;2.60;1.27;;;;;;;18.42;50.54;100327.91;4364335;32;34194;-72
2023/10/04 05:56:02;;;;;;;1.95;1.08;;;;;;;18.03;50.72;100332.69;4372962;32;34786;-71
2023/10/04 05:58:31;;;;;;;1.60;0.90;;;;;;;18.49;49.53;100331.75;4375353;32;32976;-68
2023/10/04 06:00:59;;;;;;;23.75;1.87;;;;;;;18.52;49.63;100330.56;4367274;32;34101;-73
2023/10/04 06:03:27;;;;;;;3.00;1.25;;;;;;;18.16;50.64;100330.47;4367219;32;33677;-71
2023/10/04 06:05:58;;;;;;;3.72;0.95;;;;;;;18.58;48.67;100343.53;4375095;32;34003;-70
2023/10/04 06:08:26;;;;;;;3.70;0.93;;;;;;;18.44;48.43;100346.75;4374198;32;34031;-70
2023/10/04 06:10:54;;;;;;;1.80;1.02;;;;;;;18.44;48.66;100354.88;4377033;32;33886;-71
2023/10/04 06:13:25;;;;;;;3.80;1.40;;;;;;;18.33;48.36;100354.09;4367711;32;33412;-71
2023/10/04 06:15:55;;;;;;;0.95;0.60;;;;;;;18.33;48.93;100362.22;4365646;32;33576;-70
2023/10/04 06:18:28;;;;;;;6.00;0.98;;;;;;;18.21;48.58;100378.81;4368232;32;33948;-69
2023/10/04 06:21:01;;;;;;;1.08;0.70;;;;;;;18.13;48.34;100393.09;4366186;32;34307;-69
2023/10/04 06:23:32;;;;;;;1.25;0.65;;;;;;;18.21;48.31;100403.19;4367271;32;32065;-70
2023/10/04 06:25:59;;;;;;;1.17;0.60;;;;;;;18.71;47.03;100409.09;4361695;32;35058;-70
2023/10/04 06:28:28;;;;;;;1.27;0.62;;;;;;;18.90;47.07;100410.03;4365311;32;35000;-70
2023/10/04 06:30:56;;;;;;;1.98;0.85;;;;;;;19.06;46.64;100411.03;4362123;32;33742;-70
2023/10/04 06:33:25;;;;;;;1.02;0.55;;;;;;;19.34;47.08;100410.16;4372723;32;32877;-71
2023/10/04 06:35:53;;;;;;;4.43;1.42;;;;;;;18.92;46.69;100418.88;4365829;32;34607;-71
2023/10/04 06:38:20;;;;;;;3.42;0.93;;;;;;;18.74;46.45;100411.53;4361849;32;33698;-71
2023/10/04 06:40:48;;;;;;;2.85;1.08;;;;;;;18.43;47.33;100418.25;4366080;32;33964;-71
2023/10/04 06:43:16;;;;;;;3.83;1.27;;;;;;;18.20;47.81;100424.00;4373224;32;34355;-70
2023/10/04 06:45:43;;;;;;;2.80;1.33;;;;;;;18.40;48.13;100432.94;4373150;32;33499;-70
2023/10/04 06:48:12;;;;;;;1.35;0.73;;;;;;;18.22;48.21;100429.28;4371831;32;34961;-70
2023/10/04 06:50:39;;;;;;;2.10;0.98;;;;;;;17.90;48.44;100438.62;4367625;32;34052;-71
2023/10/04 06:53:09;;;;;;;4.28;0.82;;;;;;;18.17;48.59;100437.88;4369623;32;34255;-71
2023/10/04 06:55:38;;;;;;;2.53;0.98;;;;;;;18.43;47.60;100440.78;4374172;32;34815;-70
2023/10/04 06:58:11;;;;;;;4.50;0.98;;;;;;;18.51;48.16;100434.59;4371915;32;34931;-71
2023/10/04 07:00:40;;;;;;;0.85;0.52;;;;;;;18.82;46.65;100427.91;4368355;32;33692;-70
2023/10/04 07:03:09;;;;;;;2.33;1.05;;;;;;;19.02;46.33;100423.22;4373715;32;34472;-70
2023/10/04 07:05:39;;;;;;;1.75;0.82;;;;;;;18.86;46.43;100425.75;4376309;32;33821;-71
2023/10/04 07:08:09;;;;;;;2.30;0.88;;;;;;;18.51;47.72;100415.63;4365644;32;33420;-70
2023/10/04 07:10:37;;;;;;;1.37;0.77;;;;;;;18.67;48.59;100420.41;4371659;32;33952;-70
2023/10/04 07:13:06;;;;;;;1.15;0.68;;;;;;;18.68;47.84;100432.94;4368863;32;33692;-70
2023/10/04 07:15:41;;;;;;;2.55;1.12;;;;;;;18.53;47.81;100430.75;4358969;32;33870;-69
2023/10/04 07:18:11;;;;;;;2.25;1.20;;;;;;;18.33;48.10;100448.06;4362271;32;34051;-69
2023/10/04 07:20:41;;;;;;;4.55;1.58;;;;;;;17.95;48.56;100447.19;4363850;32;33534;-69
2023/10/04 07:23:10;;;;;;;3.37;1.08;;;;;;;18.08;48.57;100436.87;4371109;32;34238;-67
2023/10/04 07:25:47;;;;;;;3.90;0.95;;;;;;;17.77;49.48;100428.09;4375267;32;34816;-71
2023/10/04 07:28:15;;;;;;;3.65;1.42;;;;;;;18.50;47.82;100441.88;4373173;32;34099;-69
2023/10/04 07:30:43;;;;;;;5.43;1.70;;;;;;;17.90;49.17;100438.62;4377317;32;34726;-69
2023/10/04 07:33:11;;;;;;;2.83;1.05;;;;;;;18.48;48.87;100424.91;4369768;32;33083;-69
2023/10/04 07:35:39;;;;;;;2.28;1.40;;;;;;;18.16;48.94;100425.31;4362520;32;35130;-69
2023/10/04 07:38:07;;;;;;;4.78;1.10;;;;;;;17.96;49.79;100448.03;4367137;32;33822;-69
2023/10/04 07:40:37;;;;;;;2.78;1.23;;;;;;;18.25;48.94;100470.47;4371424;32;34855;-69
2023/10/04 07:43:07;;;;;;;2.37;0.95;;;;;;;18.28;48.71;100500.00;4369788;32;34365;-68
2023/10/04 07:45:34;;;;;;;2.75;1.30;;;;;;;17.96;50.05;100510.31;4372738;32;34812;-69
2023/10/04 07:48:02;;;;;;;3.03;1.05;;;;;;;18.94;48.08;100498.22;4369242;32;32786;-69
2023/10/04 07:50:31;;;;;;;3.50;1.00;;;;;;;19.25;47.06;100491.47;4367245;32;33633;-69
2023/10/04 07:53:00;;;;;;;1.35;0.75;;;;;;;19.23;47.02;100474.50;4373262;32;33430;-69
2023/10/04 07:55:28;;;;;;;2.55;1.42;;;;;;;19.52;46.33;100466.16;4369920;32;34300;-69
2023/10/04 07:57:58;;;;;;;6.62;1.00;;;;;;;19.11;47.04;100473.00;4374780;32;33934;-69
2023/10/04 08:00:26;;;;;;;1.40;0.62;;;;;;;18.91;47.26;100480.41;4370829;32;33746;-69
2023/10/04 08:02:54;;;;;;;3.45;1.12;;;;;;;18.95;48.21;100481.81;4379971;32;33486;-69
2023/10/04 08:05:25;;;;;;;8.90;1.35;;;;;;;18.90;47.64;100484.09;4390787;32;33742;-69
2023/10/04 08:07:53;;;;;;;4.70;1.65;;;;;;;18.80;48.46;100480.59;4385125;32;34704;-69
2023/10/04 08:10:25;;;;;;;3.15;1.40;;;;;;;18.58;48.33;100481.78;4385952;32;33772;-69
2023/10/04 08:12:54;;;;;;;1.80;0.75;;;;;;;18.72;48.69;100494.03;4382734;32;33237;-69
2023/10/04 08:15:27;;;;;;;2.60;1.25;;;;;;;18.78;48.98;100499.75;4386358;32;35083;-69
2023/10/04 08:17:55;;;;;;;3.60;1.40;;;;;;;18.73;48.96;100503.91;4384739;32;35304;-69
2023/10/04 08:20:32;;;;;;;2.37;1.45;;;;;;;18.71;48.53;100498.56;4380525;32;33672;-69
2023/10/04 08:23:03;;;;;;;1.87;0.95;;;;;;;18.88;47.87;100494.28;4384255;32;34002;-70
2023/10/04 08:25:32;;;;;;;1.80;0.95;;;;;;;18.69;48.51;100494.31;4378798;32;33504;-69
2023/10/04 08:28:01;;;;;;;3.00;1.25;;;;;;;19.39;47.35;100500.09;4381502;32;35268;-70
2023/10/04 08:30:30;;;;;;;3.03;1.35;;;;;;;19.08;48.22;100501.28;4379253;32;33832;-70
2023/10/04 08:32:59;;;;;;;1.45;0.90;;;;;;;19.03;48.45;100500.88;4385317;32;33267;-68
2023/10/04 08:35:28;;;;;;;2.75;1.02;;;;;;;19.37;47.74;100511.13;4377511;32;36879;-69
2023/10/04 08:37:58;;;;;;;1.77;0.85;;;;;;;18.76;48.96;100519.88;4384177;32;35109;-68
2023/10/04 08:40:28;;;;;;;1.50;0.85;;;;;;;19.18;47.69;100511.25;4384281;32;34670;-70
2023/10/04 08:42:57;;;;;;;2.00;0.82;;;;;;;18.36;49.78;100508.28;4378648;32;33411;-71
2023/10/04 08:45:29;;;;;;;2.37;1.08;;;;;;;18.61;49.42;100503.19;4386944;32;35651;-73
2023/10/04 08:47:57;;;;;;;0.85;0.62;;;;;;;18.85;48.89;100486.44;4384736;32;35294;-73
2023/10/04 08:50:30;;;;;;;1.50;1.08;;;;;;;18.78;49.25;100501.56;4391067;32;33930;-71
2023/10/04 08:53:05;;;;;;;4.37;0.85;;;;;;;18.67;49.28;100504.44;4380684;32;34134;-68
2023/10/04 08:55:41;;;;;;;0.73;0.43;;;;;;;18.61;49.15;100505.88;4389279;32;33968;-69
2023/10/04 08:58:10;;;;;;;1.85;0.50;;;;;;;18.93;48.37;100516.34;4382585;32;34302;-73
2023/10/04 09:00:43;;;;;;;17.83;1.27;;;;;;;19.20;47.47;100531.81;4381466;32;33662;-71
2023/10/04 09:03:12;;;;;;;1.75;0.82;;;;;;;19.39;47.23;100533.56;4384494;32;33970;-72
2023/10/04 09:05:46;;;;;;;4.37;1.00;;;;;;;19.76;47.53;100527.16;4383962;32;34775;-69
2023/10/04 09:08:16;;;;;;;11.98;1.45;;;;;;;19.52;47.38;100519.59;4380250;32;34996;-69
2023/10/04 09:10:44;;;;;;;2.28;0.82;;;;;;;19.76;46.98;100522.56;4384473;32;34635;-70
2023/10/04 09:13:13;;;;;;;1.60;0.90;;;;;;;20.03;46.89;100520.78;4383071;32;33053;-69
2023/10/04 09:15:41;;;;;;;5.00;1.35;;;;;;;19.44;47.45;100514.06;4391979;32;34965;-71
2023/10/04 09:18:10;;;;;;;3.83;1.37;;;;;;;19.59;46.93;100520.69;4391573;32;33914;-71
2023/10/04 09:20:38;;;;;;;4.57;1.25;;;;;;;19.45;47.56;100519.34;4390515;32;35192;-71
2023/10/04 09:23:20;;;;;;;5.65;1.52;;;;;;;19.63;47.01;100505.78;4390194;32;34722;-69
2023/10/04 09:25:47;;;;;;;1.60;0.75;;;;;;;19.62;46.78;100498.66;4393924;32;33455;-68
2023/10/04 09:28:15;;;;;;;3.90;1.37;;;;;;;20.40;46.35;100508.84;4389730;32;35061;-68
2023/10/04 09:30:43;;;;;;;3.72;0.98;;;;;;;20.41;45.37;100521.41;4386611;32;33656;-68
2023/10/04 09:33:28;;;;;;;2.30;1.25;;;;;;;20.16;45.64;100528.53;4391950;32;33058;-67
2023/10/04 09:35:56;;;;;;;2.72;1.20;;;;;;;20.13;45.21;100540.59;4387288;32;33202;-65
2023/10/04 09:38:29;;;;;;;2.45;1.05;;;;;;;20.06;45.21;100538.63;4377366;32;34224;-67
2023/10/04 09:40:57;;;;;;;2.58;0.82;;;;;;;20.22;45.21;100534.22;4386763;32;34410;-68
2023/10/04 09:43:39;;;;;;;3.35;1.08;;;;;;;20.39;45.13;100527.00;4379670;32;31917;-69
2023/10/04 09:46:12;;;;;;;2.95;1.25;;;;;;;20.51;44.72;100530.34;4389487;32;33635;-68
2023/10/04 09:48:46;;;;;;;9.35;1.20;;;;;;;21.04;44.11;100528.44;4383161;32;34088;-69
2023/10/04 09:51:15;;;;;;;3.20;1.50;;;;;;;20.61;44.38;100533.81;4389741;32;33850;-68
2023/10/04 09:53:42;;;;;;;2.75;1.35;;;;;;;20.76;43.95;100544.09;4382971;32;34501;-69
2023/10/04 09:56:13;;;;;;;2.08;0.77;;;;;;;21.18;43.39;100555.87;4385320;32;33529;-69
2023/10/04 09:58:49;;;;;;;0.37;0.37;;;;;;;21.40;42.96;100559.91;4383812;32;33479;-68
2023/10/04 10:01:22;;;;;;;5.07;1.25;;;;;;;21.26;42.52;100556.94;4382430;32;34197;-68
2023/10/04 10:03:56;;;;;;;2.95;0.85;;;;;;;21.54;42.17;100566.59;4334947;33;33191;-69
2023/10/04 10:06:27;;;;;;;1.95;1.02;;;;;;;21.24;42.37;100562.53;4326985;32;34188;-68
2023/10/04 10:09:00;;;;;;;3.47;1.62;;;;;;;21.21;42.67;100559.28;4334706;33;32782;-70
2023/10/04 10:11:29;;;;;;;1.58;0.80;;;;;;;21.78;41.48;100556.78;4334437;32;33349;-70
2023/10/04 10:13:57;;;;;;;3.53;0.90;;;;;;;21.70;41.85;100552.16;4319727;33;34606;-68
2023/10/04 10:16:26;;;;;;;3.62;1.10;;;;;;;21.40;41.69;100548.16;4324815;33;34494;-69
2023/10/04 10:18:57;;;;;;;3.10;1.27;;;;;;;21.03;42.76;100551.22;4327801;33;34809;-69
2023/10/04 10:22:02;;;;;;;4.28;0.98;;;;;;;20.80;43.32;100559.06;4320873;33;33895;-70
2023/10/04 10:24:30;;;;;;;3.15;1.27;;;;;;;21.59;41.39;100561.50;4324722;33;33170;-68
2023/10/04 10:27:02;;;;;;;5.55;1.90;;;;;;;21.56;41.16;100561.81;4325486;33;35074;-68
2023/10/04 10:29:36;;;;;;;2.40;1.08;;;;;;;21.28;42.09;100557.59;4315871;33;34853;-67
2023/10/04 10:32:12;;;;;;;4.68;1.27;;;;;;;21.29;41.10;100559.34;4325210;33;33395;-69
2023/10/04 10:34:42;;;;;;;1.83;0.98;;;;;;;21.90;39.79;100562.75;4339119;32;33174;-67
2023/10/04 10:37:15;;;;;;;1.83;0.77;;;;;;;21.13;40.87;100560.97;4363875;32;34427;-69
2023/10/04 10:39:45;;;;;;;2.67;0.80;;;;;;;21.18;41.02;100561.31;4365069;32;33721;-70
2023/10/04 10:42:14;;;;;;;2.55;1.02;;;;;;;21.18;40.75;100572.19;4366159;32;33740;-71
2023/10/04 10:44:43;;;;;;;1.73;0.85;;;;;;;20.86;40.42;100564.72;4370903;32;32324;-72
2023/10/04 10:47:25;;;;;;;1.73;0.80;;;;;;;21.03;40.34;100562.13;4390131;32;34730;-70
2023/10/04 10:50:12;;;;;;;5.57;1.70;;;;;;;21.23;40.69;100560.00;4384683;32;34813;-70
2023/10/04 10:52:41;;;;;;;3.30;1.37;;;;;;;20.81;41.34;100568.97;4381850;32;34472;-71
2023/10/04 10:55:21;;;;;;;1.87;0.82;;;;;;;21.54;39.81;100560.28;4380980;32;33407;-70
2023/10/04 10:57:49;;;;;;;2.45;1.00;;;;;;;20.59;40.91;100546.72;4380834;32;35272;-70
2023/10/04 11:02:48;;;;;;;3.83;0.93;;;;;;;20.68;41.53;100553.94;4378702;32;34576;-69
2023/10/04 11:05:16;;;;;;;2.83;0.90;;;;;;;20.80;40.82;100546.34;4368513;32;33523;-72
2023/10/04 11:07:46;;;;;;;2.25;0.85;;;;;;;20.87;40.32;100541.13;4351112;32;33897;-66
2023/10/04 11:10:17;;;;;;;3.75;1.48;;;;;;;21.20;39.64;100544.84;4344783;32;35650;-69
2023/10/04 11:12:50;;;;;;;2.12;1.17;;;;;;;21.53;39.55;100543.09;4353082;32;34556;-68
2023/10/04 11:15:20;;;;;;;3.58;0.95;;;;;;;21.60;38.49;100546.00;4351730;32;32732;-68
2023/10/04 11:17:48;;;;;;;7.45;1.42;;;;;;;21.42;39.72;100537.97;4354479;32;34563;-67
2023/10/04 11:20:20;;;;;;;3.92;1.15;;;;;;;21.08;39.94;100541.53;4348204;32;34951;-70
2023/10/04 11:22:49;;;;;;;3.53;1.23;;;;;;;20.76;40.41;100533.22;4353204;32;33727;-70
2023/10/04 11:25:20;;;;;;;2.85;0.82;;;;;;;20.85;40.16;100540.41;4349165;32;32176;-69
2023/10/04 11:27:51;;;;;;;3.75;1.15;;;;;;;20.80;40.03;100531.87;4357431;32;33221;-70
2023/10/04 11:30:22;;;;;;;3.72;1.42;;;;;;;20.77;40.00;100533.06;4355195;32;33616;-67
2023/10/04 11:32:50;;;;;;;1.62;0.98;;;;;;;21.03;39.14;100530.31;4341384;32;34105;-70
2023/10/04 11:35:19;;;;;;;5.53;1.60;;;;;;;20.90;39.66;100521.75;4351786;32;33381;-69
2023/10/04 11:37:49;;;;;;;3.03;0.98;;;;;;;21.53;37.58;100532.19;4355459;32;34633;-69
2023/10/04 11:40:19;;;;;;;2.05;1.10;;;;;;;21.04;38.34;100528.44;4363438;32;35349;-72
2023/10/04 11:42:58;;;;;;;1.87;0.82;;;;;;;21.14;38.85;100521.84;4372367;32;32258;-71